Time;durP1;ratioP1;P1;durP2;ratioP2;P2;SDS_P1;SDS_P2;PMS_P1;PMS_P2;Temp;Humidity;BMP_temperature;BMP_pressure;BME280_temperature;BME280_humidity;BME280_pressure;Samples;Min_cycle;Max_cycle;Signal;HPM_P1;HPM_P2
2022/07/06 00:01:35;;;;;;;6.72;1.10;;;14.90;99.90;;;;;;6101875;23;20025;-95
2022/07/06 00:04:02;;;;;;;5.35;1.00;;;14.70;99.90;;;;;;6101931;23;20021;-95
2022/07/06 00:06:28;;;;;;;7.18;1.23;;;14.80;99.90;;;;;;6101094;23;20051;-95
2022/07/06 00:08:53;;;;;;;8.15;1.00;;;14.70;99.90;;;;;;6100923;23;20079;-95
2022/07/06 00:11:19;;;;;;;6.57;1.02;;;14.70;99.90;;;;;;6100620;23;20489;-96
2022/07/06 00:13:45;;;;;;;4.15;0.93;;;14.70;99.90;;;;;;6101687;23;20025;-96
2022/07/06 00:16:11;;;;;;;7.68;0.93;;;14.70;99.90;;;;;;6102086;23;20499;-96
2022/07/06 00:18:37;;;;;;;4.68;0.85;;;14.60;99.90;;;;;;6099314;23;20065;-95
2022/07/06 00:21:02;;;;;;;6.25;0.85;;;14.60;99.90;;;;;;6100637;23;20061;-96
2022/07/06 00:23:28;;;;;;;8.55;0.90;;;14.60;99.90;;;;;;6101085;23;20017;-94
2022/07/06 00:25:54;;;;;;;5.82;0.85;;;14.60;99.90;;;;;;6102205;23;20044;-96
2022/07/06 00:28:20;;;;;;;7.55;1.08;;;14.60;99.90;;;;;;6100953;23;20048;-96
2022/07/06 00:30:46;;;;;;;9.07;1.48;;;14.60;99.90;;;;;;6100907;23;20426;-95
2022/07/06 00:33:11;;;;;;;4.97;0.52;;;14.60;99.90;;;;;;6101244;23;20446;-95
2022/07/06 00:35:37;;;;;;;12.20;1.15;;;14.60;99.90;;;;;;6101827;23;20024;-95
2022/07/06 00:38:03;;;;;;;4.05;1.00;;;14.60;99.90;;;;;;6101654;23;20450;-96
2022/07/06 00:40:29;;;;;;;12.85;1.20;;;14.70;99.90;;;;;;6101659;23;20014;-96
2022/07/06 00:42:55;;;;;;;6.40;0.90;;;14.60;99.90;;;;;;6101256;23;20023;-95
2022/07/06 00:45:22;;;;;;;5.20;0.80;;;14.80;99.90;;;;;;6101661;23;20014;-96
2022/07/06 00:47:48;;;;;;;4.07;0.70;;;14.50;99.90;;;;;;6101650;23;20353;-95
2022/07/06 00:50:22;;;;;;;4.28;0.50;;;14.50;99.90;;;;;;6101376;23;20021;-96
2022/07/06 00:52:51;;;;;;;7.32;1.00;;;14.50;99.90;;;;;;6101451;23;20014;-96
2022/07/06 00:55:22;;;;;;;9.18;0.80;;;14.50;99.90;;;;;;6101406;23;20054;-95
2022/07/06 00:57:49;;;;;;;7.45;0.82;;;14.50;99.90;;;;;;6101587;23;20067;-96
2022/07/06 01:00:18;;;;;;;5.63;0.90;;;14.50;99.90;;;;;;6101719;23;20045;-95
2022/07/06 01:02:44;;;;;;;7.57;1.05;;;14.50;99.90;;;;;;6101976;23;20024;-95
2022/07/06 01:05:11;;;;;;;6.15;0.68;;;14.50;99.90;;;;;;6101590;23;20010;-96
2022/07/06 01:07:39;;;;;;;8.30;1.00;;;14.50;99.90;;;;;;6101872;23;20010;-95
2022/07/06 01:10:07;;;;;;;2.78;0.60;;;14.40;99.90;;;;;;6101649;23;20013;-95
2022/07/06 01:12:35;;;;;;;4.57;0.82;;;14.40;99.90;;;;;;6101727;23;20013;-95
2022/07/06 01:15:03;;;;;;;6.93;0.80;;;14.40;99.90;;;;;;6101650;23;20346;-96
2022/07/06 01:17:29;;;;;;;7.18;1.00;;;14.40;99.90;;;;;;6126285;23;20021;-96
2022/07/06 01:19:55;;;;;;;7.50;1.00;;;14.40;99.90;;;;;;6101399;23;20021;-95
2022/07/06 01:22:21;;;;;;;4.25;0.75;;;14.40;99.90;;;;;;6101145;23;20060;-95
2022/07/06 01:24:46;;;;;;;4.97;0.80;;;14.40;99.90;;;;;;6101396;23;20033;-94
2022/07/06 01:27:12;;;;;;;7.50;0.98;;;14.40;99.90;;;;;;6101687;23;20022;-95
2022/07/06 01:29:38;;;;;;;7.18;0.90;;;14.40;99.90;;;;;;6101678;23;20381;-96
2022/07/06 01:32:04;;;;;;;6.50;0.80;;;14.60;99.90;;;;;;6101230;23;20048;-95
2022/07/06 01:34:30;;;;;;;6.57;1.20;;;14.40;99.90;;;;;;6101074;23;20014;-96
2022/07/06 01:36:55;;;;;;;6.00;1.10;;;14.50;99.90;;;;;;6100850;23;20020;-95
2022/07/06 01:39:21;;;;;;;5.32;0.80;;;14.70;99.90;;;;;;6101436;23;20021;-96
2022/07/06 01:41:47;;;;;;;7.85;0.98;;;14.40;99.90;;;;;;6101872;23;20017;-95
2022/07/06 01:44:13;;;;;;;6.43;1.00;;;14.50;99.90;;;;;;6101920;23;20025;-95
2022/07/06 01:46:39;;;;;;;5.03;0.90;;;14.80;99.90;;;;;;6101915;23;20018;-96
2022/07/06 01:49:05;;;;;;;5.97;1.35;;;14.70;99.90;;;;;;6101559;23;20097;-94
2022/07/06 01:51:31;;;;;;;7.15;0.77;;;14.60;99.90;;;;;;6102003;23;20075;-95
2022/07/06 01:53:57;;;;;;;9.50;1.20;;;14.50;99.90;;;;;;6101466;23;20450;-95
2022/07/06 01:56:23;;;;;;;6.40;0.90;;;14.60;99.90;;;;;;6101882;23;20017;-95
2022/07/06 01:58:48;;;;;;;10.60;1.45;;;14.50;99.90;;;;;;6101435;23;20454;-96
2022/07/06 02:01:17;;;;;;;3.72;0.60;;;14.50;99.90;;;;;;6101796;23;20066;-96
2022/07/06 02:03:44;;;;;;;6.95;1.15;;;14.40;99.90;;;;;;6101732;23;20017;-95
2022/07/06 02:06:11;;;;;;;5.32;0.52;;;14.40;99.90;;;;;;6101614;23;20383;-95
2022/07/06 02:08:40;;;;;;;6.90;1.13;;;14.50;99.90;;;;;;6101764;23;20055;-95
2022/07/06 02:11:06;;;;;;;5.38;1.15;;;14.40;99.90;;;;;;6101534;23;20018;-95
2022/07/06 02:13:33;;;;;;;3.90;0.80;;;14.40;99.90;;;;;;6101515;23;20025;-94
2022/07/06 02:15:59;;;;;;;6.65;1.10;;;14.40;99.90;;;;;;6102111;23;20010;-94
2022/07/06 02:18:25;;;;;;;7.85;1.08;;;14.40;99.90;;;;;;6101252;23;20094;-96
2022/07/06 02:20:50;;;;;;;9.40;0.85;;;14.40;99.90;;;;;;6101551;23;20017;-95
2022/07/06 02:23:16;;;;;;;6.60;1.00;;;14.40;99.90;;;;;;6101328;23;20334;-96
2022/07/06 02:25:42;;;;;;;9.48;0.90;;;14.30;99.90;;;;;;6101472;23;20098;-96
2022/07/06 02:28:08;;;;;;;7.38;1.05;;;14.40;99.90;;;;;;6101461;23;20013;-96
2022/07/06 02:30:33;;;;;;;9.27;1.10;;;14.60;99.90;;;;;;6101474;23;20018;-95
2022/07/06 02:32:59;;;;;;;3.35;0.75;;;14.10;99.90;;;;;;6101305;23;20024;-96
2022/07/06 02:35:25;;;;;;;5.82;0.80;;;14.00;99.90;;;;;;6101174;23;20013;-96
2022/07/06 02:37:51;;;;;;;10.02;1.33;;;13.90;99.90;;;;;;6101026;23;20059;-95
2022/07/06 02:40:16;;;;;;;6.88;0.80;;;13.90;99.90;;;;;;6100715;23;20101;-95
2022/07/06 02:42:42;;;;;;;7.00;1.05;;;13.80;99.90;;;;;;6100592;23;20025;-93
2022/07/06 02:45:09;;;;;;;8.55;0.90;;;14.00;99.90;;;;;;6100458;23;20021;-95
2022/07/06 02:47:34;;;;;;;8.20;1.10;;;13.60;99.90;;;;;;6101091;23;20036;-95
2022/07/06 02:50:00;;;;;;;5.40;0.82;;;13.60;99.90;;;;;;6100421;23;20446;-96
2022/07/06 02:52:26;;;;;;;5.18;0.70;;;13.80;99.90;;;;;;6098491;23;20017;-96
2022/07/06 02:54:51;;;;;;;9.35;0.80;;;13.50;99.90;;;;;;6100853;23;20032;-95
2022/07/06 02:57:17;;;;;;;8.18;1.05;;;13.50;99.90;;;;;;6101368;23;20075;-95
2022/07/06 02:59:44;;;;;;;4.72;1.00;;;13.50;99.90;;;;;;6100826;23;20018;-95
2022/07/06 03:02:09;;;;;;;6.22;0.90;;;13.30;99.90;;;;;;6101186;23;20101;-95
2022/07/06 03:04:35;;;;;;;7.90;0.80;;;13.40;99.90;;;;;;6100958;23;20540;-95
2022/07/06 03:07:01;;;;;;;6.03;1.40;;;13.30;99.90;;;;;;6101044;23;20022;-96
2022/07/06 03:09:26;;;;;;;10.27;1.63;;;13.30;99.90;;;;;;6100719;23;20018;-96
2022/07/06 03:11:52;;;;;;;5.70;0.73;;;13.60;99.90;;;;;;6101252;23;20032;-95
2022/07/06 03:14:19;;;;;;;5.63;1.02;;;13.20;99.90;;;;;;6101069;23;20373;-96
2022/07/06 03:16:45;;;;;;;7.38;0.90;;;13.50;99.90;;;;;;6100949;23;20053;-95
2022/07/06 03:19:10;;;;;;;3.80;0.60;;;12.80;99.90;;;;;;6100237;23;20021;-95
2022/07/06 03:21:36;;;;;;;4.35;0.85;;;12.70;99.90;;;;;;6100838;23;20075;-94
2022/07/06 03:24:02;;;;;;;4.22;1.20;;;12.60;99.90;;;;;;6100928;23;20477;-96
2022/07/06 03:26:28;;;;;;;7.63;1.20;;;12.50;99.90;;;;;;6100446;23;20380;-95
2022/07/06 03:28:53;;;;;;;5.43;1.15;;;12.40;99.90;;;;;;6100517;23;20342;-95
2022/07/06 03:31:19;;;;;;;4.97;1.40;;;12.40;99.90;;;;;;6104519;23;20018;-96
2022/07/06 03:33:45;;;;;;;6.93;1.13;;;12.20;99.90;;;;;;6100390;23;20018;-95
2022/07/06 03:36:11;;;;;;;6.25;0.95;;;12.10;99.90;;;;;;6102276;23;20104;-95
2022/07/06 03:38:37;;;;;;;6.35;1.10;;;12.00;99.90;;;;;;6100354;23;20049;-95
2022/07/06 03:41:03;;;;;;;7.65;0.85;;;12.10;99.90;;;;;;6100360;23;20063;-96
2022/07/06 03:43:29;;;;;;;7.07;1.35;;;11.90;99.90;;;;;;6102441;23;20097;-94
2022/07/06 03:45:54;;;;;;;7.80;1.52;;;12.10;99.90;;;;;;6103587;23;20022;-95
2022/07/06 03:48:20;;;;;;;9.35;1.23;;;11.90;99.90;;;;;;6102620;23;20017;-95
2022/07/06 03:50:46;;;;;;;6.97;1.17;;;11.90;99.90;;;;;;6105145;23;20016;-95
2022/07/06 03:53:11;;;;;;;4.93;1.40;;;11.80;99.90;;;;;;6100410;23;20017;-95
2022/07/06 03:55:37;;;;;;;7.90;1.00;;;12.30;99.90;;;;;;6101184;23;20076;-95
2022/07/06 03:58:02;;;;;;;7.93;1.10;;;12.40;99.90;;;;;;6101837;23;20021;-95
2022/07/06 04:00:28;;;;;;;10.25;1.30;;;11.80;99.90;;;;;;6101975;23;20447;-95
2022/07/06 04:02:54;;;;;;;16.40;1.83;;;12.20;99.90;;;;;;6101962;23;20045;-95
2022/07/06 04:05:21;;;;;;;8.90;1.15;;;11.60;99.90;;;;;;6101756;23;20013;-96
2022/07/06 04:07:48;;;;;;;10.07;0.98;;;11.70;99.90;;;;;;6103718;23;20013;-96
2022/07/06 04:10:14;;;;;;;10.43;1.17;;;11.70;99.90;;;;;;6101925;23;20028;-95
2022/07/06 04:12:41;;;;;;;6.82;1.33;;;11.70;99.90;;;;;;6101968;23;20014;-95
2022/07/06 04:15:08;;;;;;;6.97;1.17;;;12.20;99.90;;;;;;6102008;23;20017;-95
2022/07/06 04:17:51;;;;;;;7.68;1.40;;;11.70;99.90;;;;;;6102188;23;20483;-95
2022/07/06 04:20:17;;;;;;;6.97;0.90;;;11.80;99.90;;;;;;6103978;23;20017;-96
2022/07/06 04:22:43;;;;;;;8.48;1.48;;;11.90;99.90;;;;;;6128495;23;20049;-95
2022/07/06 04:25:09;;;;;;;7.30;0.98;;;12.00;99.90;;;;;;6102281;23;20406;-95
2022/07/06 04:27:35;;;;;;;10.10;0.98;;;11.90;99.90;;;;;;6103649;23;20067;-95
2022/07/06 04:30:02;;;;;;;8.13;1.45;;;12.20;99.90;;;;;;6101371;23;20013;-95
2022/07/06 04:32:28;;;;;;;8.68;1.30;;;12.40;99.90;;;;;;6099823;23;20017;-95
2022/07/06 04:34:54;;;;;;;8.10;1.30;;;12.50;99.90;;;;;;6100538;23;20032;-95
2022/07/06 04:37:19;;;;;;;6.85;1.15;;;13.10;99.90;;;;;;6100358;23;20072;-95
2022/07/06 04:39:45;;;;;;;7.63;0.90;;;12.80;99.90;;;;;;6099854;23;20084;-94
2022/07/06 04:42:11;;;;;;;7.10;1.30;;;13.00;99.90;;;;;;6100913;23;20535;-94
2022/07/06 04:44:36;;;;;;;4.70;0.82;;;13.10;99.90;;;;;;6101649;23;20068;-95
2022/07/06 04:47:02;;;;;;;7.75;0.93;;;13.50;99.90;;;;;;6103404;23;20026;-95
2022/07/06 04:49:28;;;;;;;5.57;0.95;;;13.30;99.90;;;;;;6103399;23;20014;-94
2022/07/06 04:51:53;;;;;;;4.63;0.77;;;13.40;99.90;;;;;;6101903;23;20014;-94
2022/07/06 04:54:20;;;;;;;5.72;0.82;;;13.30;99.90;;;;;;6101984;23;20083;-96
2022/07/06 04:56:46;;;;;;;8.65;0.93;;;13.30;99.90;;;;;;6126141;23;20060;-95
2022/07/06 04:59:12;;;;;;;4.95;0.70;;;13.40;99.90;;;;;;6102358;23;20060;-94
2022/07/06 05:01:38;;;;;;;7.43;0.68;;;13.50;99.90;;;;;;6103827;23;20013;-95
2022/07/06 05:04:04;;;;;;;6.55;0.75;;;13.60;99.90;;;;;;6103818;23;20018;-94
2022/07/06 05:06:30;;;;;;;3.03;0.57;;;13.40;99.90;;;;;;6100099;23;20126;-95
2022/07/06 05:08:55;;;;;;;5.93;0.63;;;13.60;99.90;;;;;;6103062;23;20021;-96
2022/07/06 05:11:21;;;;;;;4.35;0.50;;;13.60;99.90;;;;;;6104957;23;20450;-95
2022/07/06 05:13:47;;;;;;;2.25;0.40;;;13.70;99.90;;;;;;6101870;23;20014;-95
2022/07/06 05:16:12;;;;;;;3.17;0.50;;;13.80;99.90;;;;;;6107243;23;20050;-92
2022/07/06 05:18:38;;;;;;;2.55;0.47;;;14.00;99.90;;;;;;6103881;23;20017;-94
2022/07/06 05:21:04;;;;;;;3.60;0.40;;;14.00;99.90;;;;;;6105406;23;20048;-91
2022/07/06 05:23:30;;;;;;;5.18;0.70;;;14.20;99.90;;;;;;6108893;23;20071;-94
2022/07/06 05:25:55;;;;;;;3.63;0.40;;;14.30;99.90;;;;;;6121566;23;20018;-91
2022/07/06 05:28:21;;;;;;;2.35;0.40;;;14.40;99.90;;;;;;6118368;23;20017;-92
2022/07/06 05:30:47;;;;;;;4.18;0.40;;;14.50;99.90;;;;;;6124343;23;20032;-95
2022/07/06 05:33:12;;;;;;;4.15;0.40;;;14.60;99.90;;;;;;6124456;23;20022;-95
2022/07/06 05:35:38;;;;;;;4.03;0.55;;;15.10;99.90;;;;;;6121651;23;20040;-96
2022/07/06 05:38:04;;;;;;;5.22;0.63;;;14.90;99.90;;;;;;6124719;23;20069;-95
2022/07/06 05:40:30;;;;;;;7.60;0.60;;;15.00;99.90;;;;;;6126271;23;20012;-95
2022/07/06 05:42:56;;;;;;;6.28;0.90;;;15.40;99.90;;;;;;6126662;23;20009;-96
2022/07/06 05:45:22;;;;;;;3.80;0.40;;;15.30;99.90;;;;;;6126277;23;20017;-96
2022/07/06 05:50:32;;;;;;;5.53;0.80;;;15.40;99.90;;;;;;6144398;23;20057;-95
2022/07/06 05:53:00;;;;;;;6.65;0.73;;;15.40;99.90;;;;;;6116089;23;20017;-94
2022/07/06 05:55:26;;;;;;;5.53;0.88;;;15.30;99.90;;;;;;6102872;23;20018;-95
2022/07/06 05:57:53;;;;;;;5.07;0.60;;;15.40;99.90;;;;;;6102712;23;20032;-96
2022/07/06 06:00:21;;;;;;;4.78;0.82;;;15.30;99.90;;;;;;6105252;23;20017;-96
2022/07/06 06:02:46;;;;;;;4.85;0.80;;;15.30;99.90;;;;;;6101244;23;20018;-96
2022/07/06 06:05:14;;;;;;;9.30;0.88;;;15.30;99.90;;;;;;6104128;23;20061;-96
2022/07/06 06:07:40;;;;;;;7.95;0.90;;;15.20;99.90;;;;;;6102417;23;20044;-95
2022/07/06 06:10:10;;;;;;;9.02;1.10;;;15.10;99.90;;;;;;6101750;23;20033;-95
2022/07/06 06:12:38;;;;;;;7.35;0.80;;;15.10;99.90;;;;;;6100537;23;20017;-96
2022/07/06 06:15:05;;;;;;;6.57;0.80;;;15.20;99.90;;;;;;6101500;23;20028;-96
2022/07/06 06:17:31;;;;;;;4.82;0.98;;;15.30;99.90;;;;;;6099379;23;20083;-96
2022/07/06 06:19:58;;;;;;;6.97;0.90;;;15.40;99.90;;;;;;6101072;23;20079;-96
2022/07/06 06:22:24;;;;;;;4.43;0.73;;;15.50;99.90;;;;;;6105200;23;20028;-96
2022/07/06 06:24:50;;;;;;;6.07;0.88;;;15.50;99.90;;;;;;6135738;23;20018;-96
2022/07/06 06:27:16;;;;;;;4.88;0.65;;;15.60;99.90;;;;;;6107541;23;20386;-96
2022/07/06 06:29:44;;;;;;;11.35;1.02;;;15.60;99.90;;;;;;6111811;23;20249;-96
2022/07/06 06:32:12;;;;;;;5.70;0.80;;;15.70;99.90;;;;;;6108057;23;20088;-96
2022/07/06 06:34:40;;;;;;;4.85;0.70;;;15.70;99.90;;;;;;6107406;23;20033;-96
2022/07/06 06:37:06;;;;;;;9.10;1.02;;;15.80;99.90;;;;;;6131144;23;20053;-96
2022/07/06 06:39:32;;;;;;;11.43;1.33;;;15.80;99.90;;;;;;6104712;23;20025;-96
2022/07/06 06:41:58;;;;;;;7.78;0.90;;;15.80;99.90;;;;;;6105380;23;20098;-96
2022/07/06 06:44:24;;;;;;;4.63;0.85;;;15.80;99.90;;;;;;6105000;23;20450;-96
2022/07/06 06:46:52;;;;;;;6.85;1.10;;;15.80;99.90;;;;;;6105350;23;20017;-96
2022/07/06 06:49:18;;;;;;;10.13;1.13;;;15.70;99.90;;;;;;6099683;23;20048;-96
2022/07/06 06:51:44;;;;;;;10.98;0.95;;;15.70;99.90;;;;;;6098901;23;20021;-96
2022/07/06 06:54:10;;;;;;;7.15;1.08;;;15.70;99.90;;;;;;6099314;23;20021;-96
2022/07/06 06:56:35;;;;;;;6.88;0.75;;;15.90;99.90;;;;;;6101218;23;20014;-96
2022/07/06 06:59:01;;;;;;;8.88;0.85;;;16.10;99.90;;;;;;6098675;23;20331;-96
2022/07/06 07:01:28;;;;;;;7.03;0.75;;;16.40;99.90;;;;;;6098660;23;20035;-96
2022/07/06 07:03:55;;;;;;;8.27;0.75;;;16.60;99.90;;;;;;6096820;23;20017;-96
2022/07/06 07:06:21;;;;;;;5.43;0.70;;;16.90;99.90;;;;;;6100954;23;20568;-96
2022/07/06 07:08:48;;;;;;;8.73;0.88;;;17.30;99.90;;;;;;6100076;23;20064;-95
2022/07/06 07:11:14;;;;;;;7.68;0.70;;;17.40;99.90;;;;;;6098767;23;20083;-96
2022/07/06 07:13:40;;;;;;;6.97;0.73;;;17.50;99.90;;;;;;6099221;23;20105;-96
2022/07/06 07:16:06;;;;;;;7.90;0.80;;;17.50;99.90;;;;;;6098616;23;20056;-96
2022/07/06 07:18:32;;;;;;;4.57;0.68;;;17.60;99.90;;;;;;6098801;23;20025;-96
2022/07/06 07:20:58;;;;;;;2.78;0.50;;;17.90;99.90;;;;;;6101423;23;20021;-96
2022/07/06 07:23:24;;;;;;;6.60;0.95;;;17.90;99.90;;;;;;6112287;23;20086;-96
2022/07/06 07:25:49;;;;;;;7.03;1.10;;;17.90;99.90;;;;;;6100181;23;20010;-95
2022/07/06 07:28:15;;;;;;;6.40;0.65;;;17.70;99.90;;;;;;6098444;23;20022;-96
2022/07/06 07:30:41;;;;;;;9.57;0.93;;;17.50;99.90;;;;;;6100085;23;20022;-96
2022/07/06 07:33:07;;;;;;;11.13;0.93;;;17.40;99.90;;;;;;6100042;23;20316;-96
2022/07/06 07:35:32;;;;;;;7.63;0.82;;;17.20;99.90;;;;;;6098829;23;20029;-94
2022/07/06 07:37:59;;;;;;;8.00;0.90;;;17.20;99.90;;;;;;6101109;23;20060;-96
2022/07/06 07:40:25;;;;;;;5.18;0.98;;;17.10;99.90;;;;;;6100893;23;20319;-95
2022/07/06 07:42:51;;;;;;;8.95;0.88;;;17.10;99.90;;;;;;6097582;23;20020;-95
2022/07/06 07:45:16;;;;;;;5.00;0.55;;;17.00;99.90;;;;;;6098079;23;20017;-95
2022/07/06 07:47:43;;;;;;;12.18;1.00;;;17.00;99.90;;;;;;6096981;23;20025;-95
2022/07/06 07:50:09;;;;;;;12.18;0.80;;;16.90;99.90;;;;;;6097679;23;20035;-95
2022/07/06 07:52:35;;;;;;;5.93;0.70;;;17.10;99.90;;;;;;6098221;23;20018;-94
2022/07/06 07:55:01;;;;;;;6.25;0.82;;;17.40;99.90;;;;;;6098571;23;20029;-95
2022/07/06 07:57:26;;;;;;;7.40;0.63;;;17.90;99.90;;;;;;6099348;23;20379;-94
2022/07/06 07:59:52;;;;;;;7.78;1.00;;;18.10;99.90;;;;;;6099113;23;20033;-95
2022/07/06 08:02:18;;;;;;;6.68;0.60;;;18.00;99.90;;;;;;6098371;23;20106;-95
2022/07/06 08:04:43;;;;;;;6.97;1.48;;;17.90;99.90;;;;;;6098177;23;20087;-96
2022/07/06 08:07:09;;;;;;;4.50;0.52;;;18.00;99.90;;;;;;6098483;23;20017;-96
2022/07/06 08:09:35;;;;;;;6.80;1.13;;;18.10;99.90;;;;;;6097431;23;20006;-96
2022/07/06 08:12:01;;;;;;;5.35;0.73;;;18.30;99.90;;;;;;6100316;23;20117;-96
2022/07/06 08:14:27;;;;;;;3.35;0.50;;;18.40;99.90;;;;;;6099275;23;20022;-95
2022/07/06 08:16:52;;;;;;;2.80;0.50;;;18.40;99.90;;;;;;6097672;23;20017;-96
2022/07/06 08:19:18;;;;;;;4.45;0.50;;;18.40;99.90;;;;;;6098907;23;20461;-96
2022/07/06 08:21:44;;;;;;;2.85;0.45;;;18.40;99.90;;;;;;6101304;23;20019;-96
2022/07/06 08:24:10;;;;;;;6.95;0.60;;;18.40;99.90;;;;;;6098267;23;20028;-95
2022/07/06 08:26:36;;;;;;;3.28;0.47;;;18.40;99.90;;;;;;6098145;23;20022;-96
2022/07/06 08:29:03;;;;;;;1.52;0.35;;;18.50;99.90;;;;;;6098021;23;20450;-96
2022/07/06 08:31:29;;;;;;;4.35;0.50;;;18.50;99.90;;;;;;6096765;23;20477;-89
2022/07/06 08:33:55;;;;;;;2.85;0.50;;;18.50;99.90;;;;;;6095863;23;20017;-89
2022/07/06 08:36:21;;;;;;;5.82;0.40;;;18.70;99.90;;;;;;6093313;23;20017;-90
2022/07/06 08:38:48;;;;;;;2.45;0.57;;;18.70;99.90;;;;;;6094325;23;20103;-89
2022/07/06 08:41:16;;;;;;;4.50;0.63;;;18.70;99.90;;;;;;6094176;23;20028;-89
2022/07/06 08:43:42;;;;;;;5.13;0.55;;;18.80;99.90;;;;;;6096582;23;20033;-90
2022/07/06 08:46:08;;;;;;;5.05;1.42;;;18.90;99.90;;;;;;6094963;23;20013;-90
2022/07/06 08:48:36;;;;;;;6.07;0.70;;;19.00;99.90;;;;;;6095211;23;20025;-91
2022/07/06 08:51:04;;;;;;;2.45;0.40;;;19.10;99.90;;;;;;6093059;23;20021;-89
2022/07/06 08:53:30;;;;;;;2.58;0.50;;;19.20;99.90;;;;;;6094360;23;20028;-88
2022/07/06 08:55:55;;;;;;;6.00;0.60;;;19.20;99.90;;;;;;6120498;23;20017;-89
2022/07/06 08:58:25;;;;;;;4.60;0.40;;;19.20;99.90;;;;;;6093025;23;20096;-89
2022/07/06 09:00:50;;;;;;;2.60;0.30;;;19.30;99.90;;;;;;6096933;23;20102;-90
2022/07/06 09:03:16;;;;;;;5.32;0.50;;;19.30;99.90;;;;;;6095461;23;20185;-95
2022/07/06 09:05:45;;;;;;;3.95;0.45;;;19.20;99.90;;;;;;6094752;23;20604;-95
2022/07/06 09:08:11;;;;;;;5.95;0.60;;;19.10;99.90;;;;;;6097060;23;20021;-95
2022/07/06 09:10:37;;;;;;;3.65;0.40;;;19.20;99.90;;;;;;6095460;23;20023;-96
2022/07/06 09:13:04;;;;;;;3.83;0.50;;;19.20;99.90;;;;;;6094985;23;20096;-95
2022/07/06 09:15:31;;;;;;;4.65;0.60;;;19.30;99.90;;;;;;6093142;23;20021;-96
2022/07/06 09:17:58;;;;;;;5.85;0.45;;;19.30;99.90;;;;;;6095723;23;20393;-95
2022/07/06 09:20:24;;;;;;;3.20;0.43;;;19.20;99.90;;;;;;6095365;23;20017;-96
2022/07/06 09:22:50;;;;;;;2.42;0.28;;;19.30;99.90;;;;;;6095581;23;20025;-95
2022/07/06 09:25:16;;;;;;;6.18;0.50;;;19.40;99.90;;;;;;6095068;23;20022;-95
2022/07/06 09:27:49;;;;;;;4.53;0.52;;;19.30;99.90;;;;;;6094846;23;20036;-96
2022/07/06 09:30:16;;;;;;;5.75;0.68;;;19.40;99.90;;;;;;6096214;23;20067;-95
2022/07/06 09:32:46;;;;;;;4.18;0.60;;;19.60;99.90;;;;;;6097393;23;20025;-95
2022/07/06 09:35:24;;;;;;;5.95;0.65;;;19.60;99.90;;;;;;6093881;23;20018;-95
2022/07/06 09:38:06;;;;;;;4.78;0.50;;;19.50;99.90;;;;;;6095626;23;20087;-95
2022/07/06 09:40:36;;;;;;;6.47;0.70;;;19.50;99.90;;;;;;6098648;23;20021;-95
2022/07/06 09:43:18;;;;;;;4.20;0.65;;;19.60;99.90;;;;;;6095945;23;20437;-94
2022/07/06 09:45:48;;;;;;;5.53;0.47;;;19.80;99.90;;;;;;6103650;23;20040;-95
2022/07/06 09:48:18;;;;;;;6.20;0.50;;;20.10;99.90;;;;;;6094094;23;20052;-96
2022/07/06 09:50:47;;;;;;;4.55;0.55;;;20.20;99.90;;;;;;6094922;23;20028;-95
2022/07/06 09:53:13;;;;;;;6.95;0.50;;;20.20;99.90;;;;;;6100497;23;20484;-96
2022/07/06 09:55:44;;;;;;;3.83;0.57;;;20.10;99.90;;;;;;6095071;23;20487;-95
2022/07/06 09:58:10;;;;;;;5.65;0.82;;;19.90;99.90;;;;;;6095134;23;20021;-96
2022/07/06 10:00:36;;;;;;;4.22;0.70;;;19.90;99.90;;;;;;6096621;23;20056;-95
2022/07/06 10:03:02;;;;;;;4.40;0.63;;;20.00;99.90;;;;;;6099210;23;20552;-96
2022/07/06 10:05:29;;;;;;;4.97;0.60;;;20.00;99.90;;;;;;6094356;23;20022;-96
2022/07/06 10:07:58;;;;;;;4.53;0.50;;;19.90;99.90;;;;;;6095710;23;20100;-96
2022/07/06 10:10:27;;;;;;;3.88;0.80;;;19.60;99.90;;;;;;6096478;23;20464;-96
2022/07/06 10:12:56;;;;;;;3.17;0.35;;;19.50;99.90;;;;;;6095637;23;20028;-95
2022/07/06 10:15:25;;;;;;;2.40;0.40;;;19.50;99.90;;;;;;6095178;23;20446;-96
2022/07/06 10:17:52;;;;;;;4.72;0.45;;;19.70;99.90;;;;;;6097862;23;20078;-96
2022/07/06 10:20:19;;;;;;;4.47;0.60;;;20.10;99.90;;;;;;6094636;23;20026;-96
2022/07/06 10:22:47;;;;;;;4.75;0.57;;;20.40;99.90;;;;;;6094942;23;20032;-94
2022/07/06 10:25:16;;;;;;;5.53;0.70;;;20.40;99.90;;;;;;6096883;23;20026;-96
2022/07/06 10:27:44;;;;;;;4.93;0.85;;;20.30;99.90;;;;;;6097313;23;20310;-96
2022/07/06 10:30:11;;;;;;;3.33;0.57;;;20.10;99.90;;;;;;6093989;23;20017;-96
2022/07/06 10:32:39;;;;;;;4.32;0.40;;;20.10;99.90;;;;;;6095192;23;20477;-96
2022/07/06 10:35:06;;;;;;;5.75;0.70;;;20.30;99.90;;;;;;6098111;23;20087;-96
2022/07/06 10:37:33;;;;;;;3.95;0.50;;;20.50;99.90;;;;;;6098753;23;20432;-96
2022/07/06 10:42:51;;;;;;;3.72;0.50;;;20.80;99.90;;;;;;6119635;23;20029;-96
2022/07/06 10:45:46;;;;;;;5.90;0.77;;;20.90;99.90;;;;;;6094092;23;20376;-95
2022/07/06 10:48:11;;;;;;;3.40;0.50;;;20.90;99.90;;;;;;6094501;23;20021;-96
2022/07/06 10:50:39;;;;;;;3.83;0.63;;;20.90;99.90;;;;;;6095834;23;20074;-95
2022/07/06 10:53:12;;;;;;;2.55;0.50;;;20.90;99.90;;;;;;6095150;23;20026;-96
2022/07/06 10:55:39;;;;;;;5.55;0.60;;;20.90;99.90;;;;;;6094850;23;20021;-95
2022/07/06 10:58:06;;;;;;;4.28;0.60;;;20.60;99.90;;;;;;6097211;23;20113;-96
2022/07/06 11:00:52;;;;;;;3.97;0.50;;;20.60;99.90;;;;;;6099599;23;20167;-96
2022/07/06 11:03:34;;;;;;;5.80;0.52;;;20.80;99.90;;;;;;6096972;23;20046;-96
2022/07/06 11:06:02;;;;;;;5.70;0.70;;;20.80;99.90;;;;;;6094982;23;20028;-95
2022/07/06 11:08:46;;;;;;;3.42;0.50;;;20.70;99.90;;;;;;6095461;23;20022;-96
2022/07/06 11:11:16;;;;;;;7.28;0.50;;;20.60;99.90;;;;;;6101827;23;20454;-96
2022/07/06 11:13:51;;;;;;;3.28;0.60;;;20.50;99.90;;;;;;6097638;23;20100;-96
2022/07/06 11:16:17;;;;;;;4.95;0.70;;;20.30;99.90;;;;;;6100004;23;20442;-96
2022/07/06 11:18:49;;;;;;;5.07;0.90;;;20.20;99.90;;;;;;6096703;23;20033;-96
2022/07/06 11:21:18;;;;;;;4.72;0.47;;;20.40;99.90;;;;;;6098412;23;20110;-96
2022/07/06 11:23:47;;;;;;;5.32;0.45;;;20.60;99.90;;;;;;6104584;23;20248;-96
2022/07/06 11:26:14;;;;;;;5.00;0.52;;;20.70;99.90;;;;;;6102972;23;20021;-95
2022/07/06 11:28:40;;;;;;;5.95;0.52;;;20.80;99.90;;;;;;6098138;23;20028;-96
2022/07/06 11:31:06;;;;;;;4.63;0.50;;;21.00;99.90;;;;;;6098026;23;20056;-96
2022/07/06 11:33:32;;;;;;;4.10;0.47;;;21.20;99.90;;;;;;6097663;23;20022;-96
2022/07/06 11:36:17;;;;;;;4.75;0.40;;;21.20;99.90;;;;;;6101411;23;20315;-96
2022/07/06 11:38:44;;;;;;;7.68;0.60;;;21.00;99.90;;;;;;6099856;23;20059;-96
2022/07/06 11:41:13;;;;;;;3.55;0.50;;;20.80;99.90;;;;;;6099904;23;20025;-96
2022/07/06 11:43:42;;;;;;;2.92;0.32;;;21.00;99.90;;;;;;6098178;23;20014;-96
2022/07/06 11:46:23;;;;;;;3.38;0.52;;;21.30;99.90;;;;;;6098772;23;20022;-96
2022/07/06 11:48:50;;;;;;;6.90;0.80;;;21.60;99.90;;;;;;6097747;23;20472;-96
2022/07/06 11:51:16;;;;;;;3.13;0.43;;;21.70;99.90;;;;;;6098931;23;20009;-96
2022/07/06 11:53:47;;;;;;;4.82;0.40;;;21.80;99.90;;;;;;6099222;23;20434;-96
2022/07/06 11:56:15;;;;;;;5.20;0.75;;;21.70;99.90;;;;;;6100011;23;20025;-96
2022/07/06 11:58:43;;;;;;;6.07;0.60;;;21.60;99.90;;;;;;6098315;23;20032;-96
2022/07/06 12:01:11;;;;;;;2.25;0.50;;;21.50;99.90;;;;;;6096546;23;20032;-96
2022/07/06 12:03:37;;;;;;;3.72;0.88;;;21.70;99.90;;;;;;6098158;23;20115;-96
2022/07/06 12:06:05;;;;;;;6.05;0.80;;;21.90;99.90;;;;;;6097213;23;20500;-96
2022/07/06 12:08:31;;;;;;;4.95;0.60;;;21.90;99.90;;;;;;6100932;23;20035;-96
2022/07/06 12:10:57;;;;;;;4.80;0.40;;;21.90;99.90;;;;;;6098715;23;20018;-96
2022/07/06 12:13:24;;;;;;;4.22;0.80;;;22.10;99.90;;;;;;6097887;23;20370;-96
2022/07/06 12:15:50;;;;;;;4.38;0.73;;;22.30;99.90;;;;;;6097659;23;20021;-96
2022/07/06 12:18:16;;;;;;;6.28;1.58;;;22.30;99.90;;;;;;6097560;23;20014;-96
2022/07/06 12:20:42;;;;;;;7.30;0.70;;;22.40;99.90;;;;;;6097783;23;20018;-96
2022/07/06 12:23:08;;;;;;;4.03;0.50;;;22.30;99.90;;;;;;6099149;23;20023;-96
2022/07/06 12:25:36;;;;;;;4.15;0.88;;;22.30;99.90;;;;;;6098126;23;20096;-96
2022/07/06 12:28:03;;;;;;;3.85;0.60;;;22.20;99.90;;;;;;6100385;23;20079;-96
2022/07/06 12:30:29;;;;;;;3.28;0.40;;;22.10;99.90;;;;;;6099110;23;20018;-95
2022/07/06 12:33:15;;;;;;;6.00;0.47;;;22.00;99.90;;;;;;6099569;23;20043;-96
2022/07/06 12:35:41;;;;;;;4.20;0.70;;;21.90;99.90;;;;;;6097235;23;20026;-96
2022/07/06 12:38:08;;;;;;;4.05;0.50;;;21.70;99.90;;;;;;6098357;23;20049;-96
2022/07/06 12:40:36;;;;;;;4.00;0.43;;;21.50;99.90;;;;;;6097755;23;20335;-96
2022/07/06 12:43:03;;;;;;;2.85;0.60;;;21.40;99.90;;;;;;6098538;23;20014;-96
2022/07/06 12:45:30;;;;;;;2.05;0.40;;;21.30;99.90;;;;;;6098660;23;20107;-95
2022/07/06 12:48:01;;;;;;;3.45;0.68;;;21.30;99.90;;;;;;6098107;23;20407;-96
2022/07/06 12:50:33;;;;;;;4.18;0.50;;;21.40;99.90;;;;;;6097020;23;20051;-95